createdAt,value
2023-04-30T00:00:20.071Z,19.2
2023-04-30T00:01:33.288Z,19.23
2023-04-30T00:02:46.151Z,19.23
2023-04-30T00:03:49.969Z,19.22
2023-04-30T00:05:02.667Z,19.22
2023-04-30T00:06:16.300Z,19.2
2023-04-30T00:07:19.234Z,19.22
2023-04-30T00:08:32.787Z,19.19
2023-04-30T00:09:45.392Z,19.19
2023-04-30T00:10:58.781Z,19.17
2023-04-30T00:12:01.451Z,19.17
2023-04-30T00:13:16.780Z,19.19
2023-04-30T00:14:19.569Z,19.17
2023-04-30T00:15:33.290Z,19.17
2023-04-30T00:16:45.941Z,19.16
2023-04-30T00:17:59.329Z,19.17
2023-04-30T00:19:02.109Z,19.16
2023-04-30T00:20:15.829Z,19.13
2023-04-30T00:21:28.477Z,19.13
2023-04-30T00:22:31.793Z,19.15
2023-04-30T00:23:44.523Z,19.13
2023-04-30T00:24:57.803Z,19.13
2023-04-30T00:26:00.584Z,19.12
2023-04-30T00:27:14.373Z,19.13
2023-04-30T00:28:36.696Z,19.13
2023-04-30T00:29:30.865Z,19.12
2023-04-30T00:30:43.470Z,19.12
2023-04-30T00:31:56.831Z,19.12
2023-04-30T00:33:00.811Z,19.13
2023-04-30T00:34:14.814Z,19.13
2023-04-30T00:35:27.415Z,19.11
2023-04-30T00:36:30.785Z,19.12
2023-04-30T00:37:43.529Z,19.13
2023-04-30T00:38:56.847Z,19.12
2023-04-30T00:40:09.436Z,19.11
2023-04-30T00:41:12.793Z,19.11
2023-04-30T00:42:25.492Z,19.09
2023-04-30T00:43:38.848Z,19.11
2023-04-30T00:44:41.636Z,19.09
2023-04-30T00:45:55.341Z,19.08
2023-04-30T00:47:08.027Z,19.08
2023-04-30T00:48:11.320Z,19.06
2023-04-30T00:49:23.921Z,19.06
2023-04-30T00:50:37.289Z,19.08
2023-04-30T00:51:49.888Z,19.08
2023-04-30T00:52:53.333Z,19.02
2023-04-30T00:54:25.703Z,19.05
2023-04-30T00:55:19.330Z,19.04
2023-04-30T00:56:22.005Z,19.02
2023-04-30T00:57:52.164Z,19.05
2023-04-30T00:58:44.879Z,19.04
2023-04-30T00:59:58.274Z,19.04
2023-04-30T01:01:01.042Z,19.08
2023-04-30T01:02:14.824Z,19.06
2023-04-30T01:03:27.601Z,19.06
2023-04-30T01:04:41.298Z,19.04
2023-04-30T01:05:43.981Z,19.05
2023-04-30T01:06:57.317Z,19.06
2023-04-30T01:08:09.931Z,19.04
2023-04-30T01:09:13.312Z,19.04
2023-04-30T01:10:45.536Z,19.04
2023-04-30T01:11:39.319Z,19.01
2023-04-30T01:12:41.985Z,19.02
2023-04-30T01:13:55.306Z,18.99
2023-04-30T01:15:07.926Z,19.01
2023-04-30T01:16:41.339Z,19.02
2023-04-30T01:17:24.158Z,19.02
2023-04-30T01:18:36.799Z,19.02
2023-04-30T01:19:50.312Z,19.02
2023-04-30T01:20:53.024Z,19.02
2023-04-30T01:22:06.318Z,19.05
2023-04-30T01:23:18.917Z,19.04
2023-04-30T01:24:22.271Z,19.04
2023-04-30T01:25:34.903Z,19.02
2023-04-30T01:26:48.307Z,18.99
2023-04-30T01:28:01.042Z,18.98
2023-04-30T01:29:04.330Z,18.98
2023-04-30T01:30:16.949Z,18.98
2023-04-30T01:31:30.334Z,18.96
2023-04-30T01:32:32.936Z,18.96
2023-04-30T01:33:46.298Z,18.95
2023-04-30T01:34:59.721Z,18.95
2023-04-30T01:37:13.301Z,18.92
2023-04-30T01:37:16.388Z,18.94
2023-04-30T01:38:29.960Z,18.96
2023-04-30T01:39:33.830Z,18.96
2023-04-30T01:40:46.419Z,18.99
2023-04-30T01:41:59.840Z,18.99
2023-04-30T01:43:02.491Z,19.01
2023-04-30T01:44:15.901Z,19.02
2023-04-30T01:45:28.458Z,18.99
2023-04-30T01:46:41.848Z,19.01
2023-04-30T01:47:44.532Z,18.99
2023-04-30T01:48:57.847Z,18.98
2023-04-30T01:50:10.516Z,18.96
2023-04-30T01:51:13.813Z,18.95
2023-04-30T01:52:26.396Z,18.95
2023-04-30T01:53:39.808Z,18.94
2023-04-30T01:54:52.668Z,18.92
2023-04-30T01:55:56.326Z,18.92
2023-04-30T01:57:08.900Z,18.92
2023-04-30T01:58:22.327Z,18.89
2023-04-30T01:59:24.983Z,18.88
2023-04-30T02:00:38.320Z,18.87
2023-04-30T02:01:50.964Z,18.91
2023-04-30T02:02:54.383Z,18.87
2023-04-30T02:04:07.116Z,18.87
2023-04-30T02:05:20.842Z,18.87
2023-04-30T02:06:23.570Z,18.85
2023-04-30T02:07:36.818Z,18.84
2023-04-30T02:08:49.431Z,18.82
2023-04-30T02:10:03.353Z,18.82
2023-04-30T02:11:06.011Z,18.84
2023-04-30T02:12:19.336Z,18.82
2023-04-30T02:13:31.971Z,18.82
2023-04-30T02:14:35.372Z,18.85
2023-04-30T02:15:48.030Z,18.81
2023-04-30T02:17:01.307Z,18.8
2023-04-30T02:18:14.013Z,18.81
2023-04-30T02:19:17.334Z,18.81
2023-04-30T02:20:29.702Z,18.8
2023-04-30T02:21:42.802Z,18.8
2023-04-30T02:22:45.470Z,18.77
2023-04-30T02:23:58.863Z,18.77
2023-04-30T02:25:11.462Z,18.78
2023-04-30T02:26:24.818Z,18.78
2023-04-30T02:27:27.500Z,18.77
2023-04-30T02:28:40.812Z,18.8
2023-04-30T02:29:53.592Z,18.75
2023-04-30T02:30:57.317Z,18.75
2023-04-30T02:32:09.976Z,18.75
2023-04-30T02:33:23.333Z,18.77
2023-04-30T02:34:25.992Z,18.74
2023-04-30T02:35:39.291Z,18.75
2023-04-30T02:36:51.928Z,18.77
2023-04-30T02:38:05.335Z,18.73
2023-04-30T02:39:08.016Z,18.74
2023-04-30T02:40:21.334Z,18.74
2023-04-30T02:41:33.946Z,18.73
2023-04-30T02:42:37.324Z,18.74
2023-04-30T02:43:49.914Z,18.73
2023-04-30T02:45:23.342Z,18.74
2023-04-30T02:46:06.193Z,18.73
2023-04-30T02:47:18.779Z,18.73
2023-04-30T02:48:32.352Z,18.74
2023-04-30T02:49:45.113Z,18.73
2023-04-30T02:50:48.340Z,18.75
2023-04-30T02:52:00.959Z,18.74
2023-04-30T02:53:14.318Z,18.74
2023-04-30T02:54:16.984Z,18.74
2023-04-30T02:55:30.619Z,18.74
2023-04-30T02:56:43.245Z,18.73
2023-04-30T02:57:57.040Z,18.73
2023-04-30T02:58:59.733Z,18.71
2023-04-30T03:00:13.324Z,18.69
2023-04-30T03:01:26.076Z,18.74
2023-04-30T03:02:49.348Z,18.71
2023-04-30T03:03:42.284Z,18.71
2023-04-30T03:04:55.846Z,18.71
2023-04-30T03:05:58.591Z,18.73
2023-04-30T03:07:12.337Z,18.71
2023-04-30T03:08:24.991Z,18.69
2023-04-30T03:09:28.827Z,18.73
2023-04-30T03:12:08.306Z,18.73
2023-04-30T03:13:01.059Z,18.69
2023-04-30T03:14:14.447Z,18.71
2023-04-30T03:15:27.096Z,18.71
2023-04-30T03:16:30.972Z,18.71
2023-04-30T03:17:46.028Z,18.73
2023-04-30T03:18:50.058Z,18.68
2023-04-30T03:20:02.754Z,18.71
2023-04-30T03:21:16.441Z,18.65
2023-04-30T03:22:19.127Z,18.66
2023-04-30T03:23:32.411Z,18.66
2023-04-30T03:24:45.061Z,18.66
2023-04-30T03:25:58.415Z,18.65
2023-04-30T03:27:01.140Z,18.68
2023-04-30T03:28:33.912Z,18.65
2023-04-30T03:29:26.662Z,18.64
2023-04-30T03:30:29.355Z,18.65
2023-04-30T03:31:43.006Z,18.64
2023-04-30T03:32:55.780Z,18.66
2023-04-30T03:34:09.458Z,18.66
2023-04-30T03:35:12.297Z,18.66
2023-04-30T03:36:25.947Z,18.65
2023-04-30T03:37:38.580Z,18.66
2023-04-30T03:38:41.925Z,18.65
2023-04-30T03:39:54.758Z,18.65
2023-04-30T03:41:08.423Z,18.64
2023-04-30T03:42:11.128Z,18.64
2023-04-30T03:43:24.425Z,18.62
2023-04-30T03:44:37.117Z,18.62
2023-04-30T03:45:50.473Z,18.62
2023-04-30T03:46:53.225Z,18.61
2023-04-30T03:48:06.955Z,18.62
2023-04-30T03:49:19.633Z,18.61
2023-04-30T03:50:23.436Z,18.6
2023-04-30T03:51:36.091Z,18.6
2023-04-30T03:52:49.427Z,18.57
2023-04-30T03:53:52.180Z,18.57
2023-04-30T03:55:05.456Z,18.58
2023-04-30T03:56:18.127Z,18.58
2023-04-30T03:57:21.466Z,18.55
2023-04-30T03:58:34.137Z,18.6
2023-04-30T03:59:47.459Z,18.57
2023-04-30T04:00:50.242Z,18.54
2023-04-30T04:02:03.497Z,18.57
2023-04-30T04:03:16.293Z,18.58
2023-04-30T04:04:30.016Z,18.66
2023-04-30T04:05:32.826Z,18.77
2023-04-30T04:06:46.460Z,18.88
2023-04-30T04:07:59.088Z,18.99
2023-04-30T04:09:02.472Z,19.11
2023-04-30T04:10:14.986Z,19.22
2023-04-30T04:11:28.478Z,19.3
2023-04-30T04:12:31.053Z,19.42
2023-04-30T04:13:44.485Z,19.5
2023-04-30T04:14:56.953Z,19.59
2023-04-30T04:16:10.160Z,19.66
2023-04-30T04:17:12.714Z,19.73
2023-04-30T04:18:25.964Z,19.8
2023-04-30T04:19:38.368Z,19.88
2023-04-30T04:20:41.457Z,19.93
2023-04-30T04:21:53.866Z,19.97
2023-04-30T04:23:06.956Z,20.04
2023-04-30T04:24:09.452Z,20.1
2023-04-30T04:25:22.488Z,20.13
2023-04-30T04:26:34.871Z,20.14
2023-04-30T04:27:48.451Z,20.18
2023-04-30T04:28:50.911Z,20.19
2023-04-30T04:30:14.495Z,20.25
2023-04-30T04:31:17.009Z,20.29
2023-04-30T04:32:20.486Z,20.29
2023-04-30T04:33:32.969Z,20.34
2023-04-30T04:34:46.068Z,20.34
2023-04-30T04:35:58.404Z,20.37
2023-04-30T04:37:01.454Z,20.38
2023-04-30T04:38:13.821Z,20.41
2023-04-30T04:39:36.447Z,20.42
2023-04-30T04:40:29.902Z,20.44
2023-04-30T04:41:44.951Z,20.46
2023-04-30T04:42:57.296Z,20.45
2023-04-30T04:44:00.434Z,20.48
2023-04-30T04:45:12.808Z,20.46
2023-04-30T04:46:26.023Z,20.48
2023-04-30T04:47:28.721Z,20.48
2023-04-30T04:48:41.981Z,20.49
2023-04-30T04:49:54.697Z,20.51
2023-04-30T04:51:07.992Z,20.49
2023-04-30T04:52:10.430Z,20.51
2023-04-30T04:53:23.469Z,20.52
2023-04-30T04:54:35.812Z,20.51
2023-04-30T04:55:38.997Z,20.51
2023-04-30T04:56:51.351Z,20.52
2023-04-30T04:58:23.958Z,20.51
2023-04-30T04:59:16.509Z,20.52
2023-04-30T05:00:20.011Z,20.52
2023-04-30T05:01:33.029Z,20.54
2023-04-30T05:02:45.492Z,20.55
2023-04-30T05:03:49.674Z,20.57
2023-04-30T05:05:02.400Z,20.55
2023-04-30T05:06:15.499Z,20.57
2023-04-30T05:07:18.058Z,20.58
2023-04-30T05:08:30.951Z,20.55
2023-04-30T05:09:43.266Z,20.55
2023-04-30T05:10:46.464Z,20.57
2023-04-30T05:11:58.808Z,20.55
2023-04-30T05:13:11.940Z,20.57
2023-04-30T05:14:24.290Z,20.54
2023-04-30T05:15:27.464Z,20.54
2023-04-30T05:16:39.905Z,20.55
2023-04-30T05:17:53.041Z,20.55
2023-04-30T05:18:55.598Z,20.55
2023-04-30T05:20:09.264Z,20.55
2023-04-30T05:21:21.662Z,20.57
2023-04-30T05:22:35.236Z,20.57
2023-04-30T05:23:37.667Z,20.59
2023-04-30T05:24:51.276Z,20.55
2023-04-30T05:26:05.316Z,20.57
2023-04-30T05:27:08.443Z,20.55
2023-04-30T05:28:20.746Z,20.57
2023-04-30T05:29:43.493Z,20.55
2023-04-30T05:30:36.033Z,20.58
2023-04-30T05:31:49.050Z,20.59
2023-04-30T05:33:01.545Z,20.59
2023-04-30T05:34:04.997Z,20.61
2023-04-30T05:35:17.287Z,20.61
2023-04-30T05:36:30.485Z,20.64
2023-04-30T05:37:42.802Z,20.64
2023-04-30T05:38:45.976Z,20.62
2023-04-30T05:39:58.345Z,20.66
2023-04-30T05:41:11.594Z,20.68
2023-04-30T05:42:14.041Z,20.68
2023-04-30T05:43:26.968Z,20.68
2023-04-30T05:44:39.261Z,20.73
2023-04-30T05:45:52.594Z,20.73
2023-04-30T05:46:55.078Z,20.73
2023-04-30T05:48:08.506Z,20.75
2023-04-30T05:49:20.938Z,20.75
2023-04-30T05:50:23.993Z,20.76
2023-04-30T05:51:36.294Z,20.79
2023-04-30T05:52:49.499Z,20.8
2023-04-30T05:53:51.734Z,20.83
2023-04-30T05:55:05.031Z,20.83
2023-04-30T05:56:17.328Z,20.83
2023-04-30T05:57:30.477Z,20.88
2023-04-30T05:58:32.911Z,20.85
2023-04-30T05:59:46.017Z,20.88
2023-04-30T06:00:58.319Z,20.92
2023-04-30T06:02:01.549Z,20.92
2023-04-30T06:03:13.957Z,20.93
2023-04-30T06:04:27.526Z,20.95
2023-04-30T06:05:29.925Z,20.96
2023-04-30T06:06:43.133Z,21.0
2023-04-30T06:07:55.515Z,20.97
2023-04-30T06:09:08.507Z,21.0
2023-04-30T06:10:10.925Z,21.0
2023-04-30T06:11:23.999Z,21.0
2023-04-30T06:12:36.281Z,21.03
2023-04-30T06:13:39.476Z,21.04
2023-04-30T06:14:51.813Z,21.06
2023-04-30T06:16:05.053Z,21.06
2023-04-30T06:17:17.465Z,21.1
2023-04-30T06:18:20.514Z,21.09
2023-04-30T06:19:32.830Z,21.1
2023-04-30T06:20:45.982Z,21.1
2023-04-30T06:21:48.374Z,21.14
2023-04-30T06:23:01.544Z,21.14
2023-04-30T06:24:13.803Z,21.16
2023-04-30T06:25:26.984Z,21.16
2023-04-30T06:26:29.467Z,21.19
2023-04-30T06:27:42.526Z,21.19
2023-04-30T06:28:54.781Z,21.21
2023-04-30T06:30:37.551Z,21.23
2023-04-30T06:31:10.291Z,21.23
2023-04-30T06:32:22.597Z,21.26
2023-04-30T06:33:35.504Z,21.27
2023-04-30T06:34:37.934Z,21.3
2023-04-30T06:35:51.035Z,21.3
2023-04-30T06:37:03.501Z,21.33
2023-04-30T06:38:16.507Z,21.34
2023-04-30T06:39:18.862Z,21.34
2023-04-30T06:40:32.029Z,21.34
2023-04-30T06:41:44.306Z,21.33
2023-04-30T06:42:47.786Z,21.4
2023-04-30T06:44:00.159Z,21.36
2023-04-30T06:45:13.000Z,21.34
2023-04-30T06:46:25.365Z,21.39
2023-04-30T06:47:28.570Z,21.39
2023-04-30T06:48:41.098Z,21.4
2023-04-30T06:49:54.274Z,21.4
2023-04-30T06:50:56.761Z,21.4
2023-04-30T06:52:10.293Z,21.41
2023-04-30T06:53:22.626Z,21.41
2023-04-30T06:54:35.525Z,21.43
2023-04-30T06:55:37.918Z,21.44
2023-04-30T06:56:51.008Z,21.46
2023-04-30T06:58:03.327Z,21.44
2023-04-30T06:59:06.503Z,21.44
2023-04-30T07:00:18.743Z,21.5
2023-04-30T07:01:32.031Z,21.5
2023-04-30T07:02:44.492Z,21.51
2023-04-30T07:03:48.115Z,21.54
2023-04-30T07:05:00.527Z,21.54
2023-04-30T07:06:13.557Z,21.6
2023-04-30T07:07:16.062Z,21.58
2023-04-30T07:08:29.019Z,21.6
2023-04-30T07:09:41.287Z,21.61
2023-04-30T07:10:54.494Z,21.62
2023-04-30T07:11:56.844Z,21.64
2023-04-30T07:13:10.004Z,21.65
2023-04-30T07:14:22.455Z,21.65
2023-04-30T07:15:35.607Z,21.61
2023-04-30T07:16:38.142Z,21.64
2023-04-30T07:17:51.549Z,21.62
2023-04-30T07:19:03.901Z,21.62
2023-04-30T07:20:07.006Z,21.64
2023-04-30T07:21:19.257Z,21.64
2023-04-30T07:22:32.522Z,21.61
2023-04-30T07:23:34.908Z,21.64
2023-04-30T07:24:48.043Z,21.64
2023-04-30T07:26:00.348Z,21.64
2023-04-30T07:27:13.508Z,21.62
2023-04-30T07:28:35.668Z,21.6
2023-04-30T07:29:29.004Z,21.6
2023-04-30T07:30:41.323Z,21.58
2023-04-30T07:31:54.055Z,21.61
2023-04-30T07:32:56.557Z,21.6
2023-04-30T07:34:09.519Z,21.61
2023-04-30T07:35:21.915Z,21.62
2023-04-30T07:36:25.025Z,21.61
2023-04-30T07:37:39.136Z,21.64
2023-04-30T07:38:44.001Z,21.64
2023-04-30T07:39:56.807Z,21.62
2023-04-30T07:41:10.049Z,21.62
2023-04-30T07:42:22.337Z,21.62
2023-04-30T07:43:25.512Z,21.6
2023-04-30T07:44:37.746Z,21.57
2023-04-30T07:46:10.515Z,21.57
2023-04-30T07:46:53.243Z,21.6
2023-04-30T07:48:05.582Z,21.6
2023-04-30T07:49:18.553Z,21.57
2023-04-30T07:50:30.876Z,21.6
2023-04-30T07:51:34.072Z,21.58
2023-04-30T07:52:46.456Z,21.54
2023-04-30T07:53:59.538Z,21.54
2023-04-30T07:55:01.982Z,21.54
2023-04-30T07:56:15.569Z,21.54
2023-04-30T07:57:28.056Z,21.53
2023-04-30T07:58:41.024Z,21.54
2023-04-30T07:59:43.410Z,21.55
2023-04-30T08:00:56.508Z,21.55
2023-04-30T08:02:09.088Z,21.58
2023-04-30T08:03:12.630Z,21.58
2023-04-30T08:04:25.102Z,21.61
2023-04-30T08:05:38.569Z,21.64
2023-04-30T08:06:41.912Z,21.62
2023-04-30T08:07:55.530Z,21.64
2023-04-30T08:09:07.793Z,21.67
2023-04-30T08:10:11.067Z,21.68
2023-04-30T08:11:23.319Z,21.7
2023-04-30T08:12:36.514Z,21.71
2023-04-30T08:13:48.757Z,21.72
2023-04-30T08:14:52.008Z,21.74
2023-04-30T08:16:04.292Z,21.75
2023-04-30T08:17:17.542Z,21.8
2023-04-30T08:18:20.117Z,21.81
2023-04-30T08:19:33.508Z,21.84
2023-04-30T08:20:45.803Z,21.87
2023-04-30T08:21:59.046Z,21.88
2023-04-30T08:23:01.571Z,21.9
2023-04-30T08:24:14.512Z,21.94
2023-04-30T08:25:26.738Z,21.94
2023-04-30T08:26:30.080Z,21.97
2023-04-30T08:27:42.499Z,22.01
2023-04-30T08:28:56.035Z,21.99
2023-04-30T08:29:58.391Z,22.02
2023-04-30T08:31:11.523Z,22.03
2023-04-30T08:32:24.026Z,22.05
2023-04-30T08:33:37.536Z,22.08
2023-04-30T08:34:39.873Z,22.11
2023-04-30T08:35:53.022Z,22.11
2023-04-30T08:37:05.307Z,22.13
2023-04-30T08:38:08.568Z,22.15
2023-04-30T08:39:20.784Z,22.16
2023-04-30T08:40:50.307Z,22.18
2023-04-30T08:41:53.355Z,22.21
2023-04-30T08:42:56.068Z,22.22
2023-04-30T08:43:58.360Z,22.25
2023-04-30T08:45:31.060Z,22.25
2023-04-30T08:46:23.599Z,22.29
2023-04-30T08:47:26.122Z,22.33
2023-04-30T08:48:39.065Z,22.35
2023-04-30T08:49:51.283Z,22.35
2023-04-30T08:51:04.539Z,22.38
2023-04-30T08:52:26.667Z,22.42
2023-04-30T08:53:20.040Z,22.41
2023-04-30T08:54:32.246Z,22.43
2023-04-30T08:55:36.553Z,22.45
2023-04-30T08:56:48.821Z,22.46
2023-04-30T08:58:02.072Z,22.46
2023-04-30T08:59:04.836Z,22.48
2023-04-30T09:00:18.145Z,22.5
2023-04-30T09:01:30.481Z,22.48
2023-04-30T09:02:33.602Z,22.49
2023-04-30T09:03:47.180Z,22.52
2023-04-30T09:05:00.162Z,22.52
2023-04-30T09:06:02.561Z,22.53
2023-04-30T09:07:15.533Z,22.53
2023-04-30T09:08:27.921Z,22.56
2023-04-30T09:09:41.041Z,22.53
2023-04-30T09:10:43.328Z,22.56
2023-04-30T09:11:56.574Z,22.56
2023-04-30T09:13:09.635Z,22.59
2023-04-30T09:14:13.282Z,22.6
2023-04-30T09:15:25.542Z,22.63
2023-04-30T09:16:38.567Z,22.64
2023-04-30T09:17:40.868Z,22.66
2023-04-30T09:18:54.086Z,22.69
2023-04-30T09:20:06.233Z,22.7
2023-04-30T09:21:19.071Z,22.74
2023-04-30T09:22:21.437Z,22.73
2023-04-30T09:23:34.541Z,22.81
2023-04-30T09:24:46.765Z,22.83
2023-04-30T09:25:50.088Z,22.83
2023-04-30T09:27:02.566Z,22.87
2023-04-30T09:28:16.063Z,22.9
2023-04-30T09:29:18.317Z,22.93
2023-04-30T09:30:41.080Z,22.93
2023-04-30T09:31:43.533Z,22.97
2023-04-30T09:32:57.025Z,22.99
2023-04-30T09:33:59.534Z,23.01
2023-04-30T09:35:22.055Z,23.03
2023-04-30T09:36:24.405Z,23.1
2023-04-30T09:37:28.563Z,23.11
2023-04-30T09:38:40.777Z,23.15
2023-04-30T09:39:54.177Z,23.18
2023-04-30T09:41:06.394Z,23.18
2023-04-30T09:42:09.549Z,23.23
2023-04-30T09:43:21.715Z,23.25
2023-04-30T09:44:35.588Z,23.28
2023-04-30T09:45:37.990Z,23.3
2023-04-30T09:46:51.153Z,23.32
2023-04-30T09:48:16.441Z,23.37
2023-04-30T09:49:10.562Z,23.37
2023-04-30T09:50:22.629Z,23.42
2023-04-30T09:51:35.080Z,23.44
2023-04-30T09:52:37.359Z,23.48
2023-04-30T09:53:50.062Z,23.48
2023-04-30T09:54:52.479Z,23.52
2023-04-30T09:56:05.567Z,23.55
2023-04-30T09:57:17.710Z,23.58
2023-04-30T09:58:30.604Z,23.61
2023-04-30T09:59:32.824Z,23.59
2023-04-30T10:00:45.670Z,23.64
2023-04-30T10:01:57.873Z,23.65
2023-04-30T10:03:11.175Z,23.68
2023-04-30T10:04:13.564Z,23.68
2023-04-30T10:05:26.545Z,23.71
2023-04-30T10:06:38.724Z,23.71
2023-04-30T10:07:42.089Z,23.74
2023-04-30T10:08:54.186Z,23.74
2023-04-30T10:10:07.080Z,23.75
2023-04-30T10:11:19.258Z,23.76
2023-04-30T10:12:22.594Z,23.78
2023-04-30T10:13:34.783Z,23.81
2023-04-30T10:14:47.557Z,23.82
2023-04-30T10:15:49.776Z,23.85
2023-04-30T10:17:02.624Z,23.83
2023-04-30T10:18:14.927Z,23.83
2023-04-30T10:19:28.098Z,23.86
2023-04-30T10:20:39.995Z,23.86
2023-04-30T10:21:45.599Z,23.86
2023-04-30T10:22:48.962Z,23.88
2023-04-30T10:24:05.572Z,23.88
2023-04-30T10:25:08.918Z,23.9
2023-04-30T10:26:22.377Z,23.86
2023-04-30T10:27:34.719Z,23.88
2023-04-30T10:28:38.363Z,23.88
2023-04-30T10:29:50.522Z,23.85
2023-04-30T10:31:06.068Z,23.86
2023-04-30T10:32:09.391Z,23.86
2023-04-30T10:33:22.653Z,23.85
2023-04-30T10:34:25.508Z,23.86
2023-04-30T10:35:38.576Z,23.85
2023-04-30T10:36:50.713Z,23.88
2023-04-30T10:38:04.105Z,23.9
2023-04-30T10:39:06.321Z,23.9
2023-04-30T10:40:19.604Z,23.89
2023-04-30T10:41:31.684Z,23.92
2023-04-30T10:42:34.677Z,23.93
2023-04-30T10:43:46.681Z,23.96
2023-04-30T10:44:59.601Z,23.98
2023-04-30T10:46:01.728Z,23.96
2023-04-30T10:47:14.589Z,23.98
2023-04-30T10:48:26.543Z,24.0
2023-04-30T10:49:39.634Z,24.02
2023-04-30T10:50:43.597Z,24.03
2023-04-30T10:51:57.107Z,24.05
2023-04-30T10:53:09.250Z,24.06
2023-04-30T10:54:12.093Z,24.07
2023-04-30T10:55:25.286Z,24.09
2023-04-30T10:56:39.091Z,24.11
2023-04-30T10:57:41.343Z,24.13
2023-04-30T10:59:03.590Z,24.14
2023-04-30T11:00:05.782Z,24.14
2023-04-30T11:01:18.635Z,24.17
2023-04-30T11:02:21.083Z,24.19
2023-04-30T11:03:34.112Z,24.2
2023-04-30T11:04:46.278Z,24.22
2023-04-30T11:05:49.623Z,24.2
2023-04-30T11:07:01.744Z,24.23
2023-04-30T11:08:14.642Z,24.23
2023-04-30T11:09:16.898Z,24.29
2023-04-30T11:10:30.153Z,24.26
2023-04-30T11:11:42.341Z,24.26
2023-04-30T11:12:55.094Z,24.3
2023-04-30T11:13:57.343Z,24.32
2023-04-30T11:15:10.107Z,24.32
2023-04-30T11:16:22.275Z,24.32
2023-04-30T11:17:35.212Z,24.29
2023-04-30T11:18:37.565Z,24.29
2023-04-30T11:19:50.609Z,24.33
2023-04-30T11:21:02.674Z,24.33
2023-04-30T11:22:05.643Z,24.33
2023-04-30T11:23:25.209Z,24.36
2023-04-30T11:24:27.532Z,24.39
2023-04-30T11:25:40.680Z,24.36
2023-04-30T11:26:44.378Z,24.34
2023-04-30T11:27:56.489Z,24.33
2023-04-30T11:29:09.627Z,24.3
2023-04-30T11:30:11.921Z,24.32
2023-04-30T11:31:24.613Z,24.29
2023-04-30T11:32:46.379Z,24.26
2023-04-30T11:33:49.598Z,24.25
2023-04-30T11:34:51.862Z,24.25
2023-04-30T11:36:04.623Z,24.2
2023-04-30T11:37:16.642Z,24.17
2023-04-30T11:38:29.112Z,24.1
2023-04-30T11:39:31.384Z,24.05
2023-04-30T11:40:44.172Z,24.03
2023-04-30T11:41:56.319Z,24.02
2023-04-30T11:42:59.606Z,24.02
2023-04-30T11:44:11.843Z,24.0
2023-04-30T11:45:24.594Z,24.0
2023-04-30T11:46:36.715Z,24.0
2023-04-30T11:47:40.230Z,24.0
2023-04-30T11:48:52.430Z,24.0
2023-04-30T11:50:05.137Z,23.98
2023-04-30T11:51:07.462Z,23.96
2023-04-30T11:52:20.616Z,23.96
2023-04-30T11:53:32.754Z,23.95
2023-04-30T11:54:45.606Z,23.95
2023-04-30T11:55:47.848Z,23.92
2023-04-30T11:57:00.605Z,23.95
2023-04-30T11:58:12.769Z,23.93
2023-04-30T11:59:15.602Z,23.95
2023-04-30T12:00:27.685Z,23.95
2023-04-30T12:01:40.662Z,23.96
2023-04-30T12:02:52.949Z,23.93
2023-04-30T12:03:56.289Z,23.93
2023-04-30T12:05:08.480Z,23.93
2023-04-30T12:06:21.693Z,23.9
2023-04-30T12:07:24.001Z,23.95
2023-04-30T12:08:37.145Z,23.95
2023-04-30T12:09:49.381Z,23.93
2023-04-30T12:11:02.134Z,23.93
2023-04-30T12:12:04.391Z,23.93
2023-04-30T12:13:17.094Z,23.92
2023-04-30T12:14:29.253Z,23.92
2023-04-30T12:15:32.109Z,23.9
2023-04-30T12:16:44.563Z,23.92
2023-04-30T12:17:57.730Z,23.89
2023-04-30T12:19:10.055Z,23.9
2023-04-30T12:20:13.116Z,23.88
2023-04-30T12:21:25.283Z,23.89
2023-04-30T12:22:38.638Z,23.92
2023-04-30T12:23:40.868Z,23.89
2023-04-30T12:24:53.597Z,23.92
2023-04-30T12:26:05.759Z,23.92
2023-04-30T12:27:18.635Z,23.89
2023-04-30T12:28:20.861Z,23.9
2023-04-30T12:29:33.611Z,23.92
2023-04-30T12:30:46.987Z,23.93
2023-04-30T12:31:50.173Z,23.9
2023-04-30T12:33:02.480Z,23.92
2023-04-30T12:34:15.596Z,23.9
2023-04-30T12:35:17.903Z,23.9
2023-04-30T12:36:30.621Z,23.9
2023-04-30T12:37:42.719Z,23.92
2023-04-30T12:38:55.619Z,23.9
2023-04-30T12:39:58.000Z,23.93
2023-04-30T12:41:11.653Z,23.93
2023-04-30T12:42:23.984Z,23.92
2023-04-30T12:43:27.110Z,23.92
2023-04-30T12:44:39.216Z,23.92
2023-04-30T12:45:52.359Z,23.92
2023-04-30T12:47:04.623Z,23.92
2023-04-30T12:48:07.650Z,23.95
2023-04-30T12:49:19.864Z,23.93
2023-04-30T12:50:32.658Z,23.93
2023-04-30T12:51:34.971Z,23.93
2023-04-30T12:52:48.122Z,23.93
2023-04-30T12:54:00.298Z,23.93
2023-04-30T12:55:13.114Z,23.93
2023-04-30T12:56:15.572Z,23.96
2023-04-30T12:57:28.604Z,23.95
2023-04-30T12:58:40.736Z,23.95
2023-04-30T12:59:53.805Z,23.95
2023-04-30T13:00:56.287Z,23.95
2023-04-30T13:02:09.136Z,23.95
2023-04-30T13:03:21.253Z,23.96
2023-04-30T13:04:24.631Z,23.95
2023-04-30T13:05:36.812Z,23.96
2023-04-30T13:06:59.615Z,23.98
2023-04-30T13:08:01.875Z,23.96
2023-04-30T13:09:05.120Z,23.98
2023-04-30T13:10:17.221Z,23.96
2023-04-30T13:11:30.166Z,23.95
2023-04-30T13:12:32.387Z,23.93
2023-04-30T13:13:45.143Z,23.92
2023-04-30T13:14:57.467Z,23.92
2023-04-30T13:16:10.663Z,23.96
2023-04-30T13:17:13.047Z,23.95
2023-04-30T13:18:26.168Z,23.96
2023-04-30T13:19:38.273Z,23.95
2023-04-30T13:20:41.113Z,23.92
2023-04-30T13:21:53.297Z,23.92
2023-04-30T13:23:16.164Z,23.93
2023-04-30T13:24:18.422Z,23.9
2023-04-30T13:25:21.631Z,23.89
2023-04-30T13:26:33.738Z,23.85
2023-04-30T13:27:46.629Z,23.83
2023-04-30T13:28:48.957Z,23.82
2023-04-30T13:30:02.141Z,23.83
2023-04-30T13:31:33.613Z,23.86
2023-04-30T13:32:27.183Z,23.86
2023-04-30T13:33:29.652Z,23.89
2023-04-30T13:34:42.645Z,23.89
2023-04-30T13:35:54.842Z,23.9
2023-04-30T13:37:07.639Z,23.92
2023-04-30T13:38:10.004Z,23.95
2023-04-30T13:39:23.131Z,23.96
2023-04-30T13:40:35.344Z,23.98
2023-04-30T13:41:38.631Z,23.96
2023-04-30T13:42:50.792Z,23.95
2023-04-30T13:44:13.140Z,23.93
2023-04-30T13:45:15.389Z,23.92
2023-04-30T13:46:18.647Z,23.92
2023-04-30T13:47:30.908Z,23.95
2023-04-30T13:48:44.166Z,23.93
2023-04-30T13:49:46.386Z,23.93
2023-04-30T13:50:59.159Z,23.95
2023-04-30T13:52:11.331Z,23.98
2023-04-30T13:53:24.134Z,23.93
2023-04-30T13:54:26.431Z,23.98
2023-04-30T13:55:39.179Z,23.98
2023-04-30T13:56:51.339Z,23.98
2023-04-30T13:57:54.643Z,23.92
2023-04-30T13:59:26.310Z,23.85
2023-04-30T14:00:19.631Z,23.79
2023-04-30T14:01:31.736Z,23.81
2023-04-30T14:02:34.752Z,23.79
2023-04-30T14:03:56.958Z,23.78
2023-04-30T14:05:05.835Z,23.75
2023-04-30T14:06:09.185Z,23.75
2023-04-30T14:07:22.151Z,23.76
2023-04-30T14:08:24.384Z,23.79
2023-04-30T14:09:37.667Z,23.79
2023-04-30T14:10:49.823Z,23.79
2023-04-30T14:11:53.143Z,23.82
2023-04-30T14:13:05.326Z,23.85
2023-04-30T14:14:18.141Z,23.85
2023-04-30T14:15:30.266Z,23.86
2023-04-30T14:16:33.221Z,23.86
2023-04-30T14:17:45.479Z,23.85
2023-04-30T14:18:58.638Z,23.83
2023-04-30T14:20:01.067Z,23.88
2023-04-30T14:21:14.172Z,23.88
2023-04-30T14:22:26.392Z,23.88
2023-04-30T14:23:39.177Z,23.89
2023-04-30T14:25:01.171Z,23.88
2023-04-30T14:25:54.682Z,23.88
2023-04-30T14:27:06.780Z,23.9
2023-04-30T14:28:09.629Z,23.89
2023-04-30T14:29:22.010Z,23.92
2023-04-30T14:30:35.185Z,23.93
2023-04-30T14:31:47.403Z,23.95
2023-04-30T14:32:50.734Z,23.92
2023-04-30T14:34:03.010Z,23.9
2023-04-30T14:35:16.176Z,23.9
2023-04-30T14:36:18.522Z,23.92
2023-04-30T14:37:31.657Z,23.89
2023-04-30T14:38:43.843Z,23.9
2023-04-30T14:39:57.056Z,23.88
2023-04-30T14:40:59.689Z,23.83
2023-04-30T14:42:12.682Z,23.79
2023-04-30T14:43:24.880Z,23.78
2023-04-30T14:44:28.154Z,23.76
2023-04-30T14:45:40.444Z,23.79
2023-04-30T14:46:53.674Z,23.76
2023-04-30T14:47:56.006Z,23.76
2023-04-30T14:49:09.150Z,23.76
2023-04-30T14:50:21.272Z,23.74
2023-04-30T14:51:34.185Z,23.76
2023-04-30T14:52:36.606Z,23.76
2023-04-30T14:53:49.644Z,23.78
2023-04-30T14:55:01.827Z,23.78
2023-04-30T14:56:05.173Z,23.76
2023-04-30T14:57:17.355Z,23.81
2023-04-30T14:58:30.168Z,23.78
2023-04-30T14:59:51.722Z,23.79
2023-04-30T15:00:54.704Z,23.75
2023-04-30T15:01:57.115Z,23.75
2023-04-30T15:03:10.289Z,23.69
2023-04-30T15:04:12.748Z,23.72